createdAt,value
2022-09-15T00:01:03.159Z,2.45
2022-09-15T00:03:30.011Z,3.22
2022-09-15T00:05:56.833Z,1.35
2022-09-15T00:08:23.907Z,2.95
2022-09-15T00:10:52.365Z,4.38
2022-09-15T00:13:19.587Z,2.17
2022-09-15T00:15:46.896Z,3.95
2022-09-15T00:18:15.478Z,2.40
2022-09-15T00:20:44.281Z,3.40
2022-09-15T00:23:13.117Z,2.60
2022-09-15T00:25:43.591Z,3.45
2022-09-15T00:28:10.588Z,1.88
2022-09-15T00:30:40.938Z,1.52
2022-09-15T00:33:07.759Z,3.20
2022-09-15T00:35:38.705Z,2.33
2022-09-15T00:38:06.119Z,1.70
2022-09-15T00:40:32.926Z,2.15
2022-09-15T00:42:59.946Z,1.60
2022-09-15T00:45:26.952Z,2.10
2022-09-15T00:47:53.788Z,2.78
2022-09-15T00:50:21.087Z,4.90
2022-09-15T00:52:53.234Z,1.48
2022-09-15T00:55:25.471Z,1.13
2022-09-15T00:57:56.786Z,1.77
2022-09-15T01:00:25.532Z,2.38
2022-09-15T01:02:52.334Z,1.77
2022-09-15T01:05:21.802Z,1.30
2022-09-15T01:07:56.278Z,1.60
2022-09-15T01:10:26.345Z,0.90
2022-09-15T01:12:54.341Z,1.60
2022-09-15T01:15:23.326Z,3.60
2022-09-15T01:18:01.609Z,2.22
2022-09-15T01:21:06.474Z,3.28
2022-09-15T01:24:19.001Z,2.25
2022-09-15T01:27:24.123Z,1.70
2022-09-15T01:30:04.530Z,1.45
2022-09-15T01:32:41.153Z,1.15
2022-09-15T01:35:17.616Z,1.95
2022-09-15T01:37:52.751Z,3.78
2022-09-15T01:40:23.182Z,2.55
2022-09-15T01:42:51.433Z,0.80
2022-09-15T01:45:23.623Z,1.98
2022-09-15T01:47:54.158Z,1.52
2022-09-15T01:50:24.309Z,1.60
2022-09-15T01:52:54.858Z,1.42
2022-09-15T01:55:24.877Z,2.33
2022-09-15T01:57:51.655Z,0.80
2022-09-15T02:00:20.126Z,1.40
2022-09-15T02:02:52.283Z,2.05
2022-09-15T02:05:22.838Z,1.92
2022-09-15T02:07:54.926Z,1.40
2022-09-15T02:10:28.727Z,2.20
2022-09-15T02:13:01.710Z,4.45
2022-09-15T02:15:36.766Z,2.35
2022-09-15T02:18:07.231Z,2.47
2022-09-15T02:20:43.918Z,0.70
2022-09-15T02:23:18.335Z,3.72
2022-09-15T02:25:48.425Z,3.90
2022-09-15T02:28:18.765Z,1.80
2022-09-15T02:30:48.414Z,0.95
2022-09-15T02:33:19.054Z,1.33
2022-09-15T02:35:46.389Z,3.03
2022-09-15T02:38:13.916Z,1.73
2022-09-15T02:40:42.663Z,3.70
2022-09-15T02:43:11.438Z,0.82
2022-09-15T02:45:38.529Z,1.85
2022-09-15T02:48:06.733Z,1.98
2022-09-15T02:50:33.422Z,1.05
2022-09-15T02:53:00.111Z,1.15
2022-09-15T02:55:26.838Z,2.47
2022-09-15T02:57:53.552Z,3.78
2022-09-15T03:00:20.491Z,1.00
2022-09-15T03:02:50.175Z,2.55
2022-09-15T03:05:20.603Z,2.20
2022-09-15T03:07:47.395Z,2.28
2022-09-15T03:10:14.706Z,1.17
2022-09-15T03:12:42.849Z,8.30
2022-09-15T03:15:11.479Z,0.73
2022-09-15T03:17:40.101Z,2.10
2022-09-15T03:20:08.679Z,1.17
2022-09-15T03:22:36.823Z,0.93
2022-09-15T03:25:07.505Z,1.52
2022-09-15T03:27:35.131Z,1.00
2022-09-15T03:30:02.370Z,3.28
2022-09-15T03:32:29.109Z,1.98
2022-09-15T03:34:58.515Z,1.35
2022-09-15T03:37:25.728Z,4.63
2022-09-15T03:39:53.942Z,1.27
2022-09-15T03:42:20.891Z,1.33
2022-09-15T03:44:47.625Z,1.55
2022-09-15T03:47:14.384Z,1.52
2022-09-15T03:49:41.119Z,2.78
2022-09-15T03:52:07.830Z,1.70
2022-09-15T03:54:34.548Z,2.13
2022-09-15T03:57:02.716Z,1.65
2022-09-15T03:59:29.477Z,1.27
2022-09-15T04:01:56.289Z,1.80
2022-09-15T04:04:23.173Z,2.38
2022-09-15T04:06:49.894Z,1.73
2022-09-15T04:09:16.796Z,3.42
2022-09-15T04:11:43.529Z,2.20
2022-09-15T04:14:11.602Z,0.80
2022-09-15T04:16:38.316Z,2.45
2022-09-15T04:19:05.056Z,1.13
2022-09-15T04:21:31.754Z,1.85
2022-09-15T04:23:58.450Z,2.10
2022-09-15T04:26:28.340Z,0.75
2022-09-15T04:28:55.304Z,2.13
2022-09-15T04:31:23.709Z,1.90
2022-09-15T04:33:53.051Z,0.82
2022-09-15T04:36:22.255Z,1.13
2022-09-15T04:38:49.404Z,1.38
2022-09-15T04:41:17.235Z,1.83
2022-09-15T04:43:43.976Z,1.77
2022-09-15T04:46:11.221Z,2.67
2022-09-15T04:48:39.317Z,1.25
2022-09-15T04:51:08.277Z,1.42
2022-09-15T04:53:36.423Z,0.82
2022-09-15T04:56:04.545Z,3.92
2022-09-15T04:58:31.306Z,1.83
2022-09-15T05:00:58.012Z,1.48
2022-09-15T05:03:24.763Z,0.80
2022-09-15T05:05:52.789Z,2.33
2022-09-15T05:08:19.481Z,1.25
2022-09-15T05:10:46.142Z,1.13
2022-09-15T05:13:12.836Z,0.93
2022-09-15T05:15:39.528Z,1.00
2022-09-15T05:18:06.490Z,0.75
2022-09-15T05:20:33.193Z,1.25
2022-09-15T05:23:01.222Z,1.17
2022-09-15T05:25:27.881Z,1.20
2022-09-15T05:27:54.565Z,1.02
2022-09-15T05:30:37.625Z,1.85
2022-09-15T05:33:05.562Z,1.73
2022-09-15T05:35:32.221Z,1.38
2022-09-15T05:37:58.897Z,0.75
2022-09-15T05:40:27.107Z,2.13
2022-09-15T05:42:53.859Z,0.77
2022-09-15T05:45:20.530Z,0.95
2022-09-15T05:47:47.177Z,2.78
2022-09-15T05:50:14.019Z,0.82
2022-09-15T05:52:40.702Z,1.02
2022-09-15T05:57:48.230Z,0.70
2022-09-15T06:00:16.556Z,0.40
2022-09-15T06:02:43.304Z,1.15
2022-09-15T06:05:13.033Z,1.38
2022-09-15T06:07:39.710Z,1.10
2022-09-15T06:10:07.841Z,0.80
2022-09-15T06:12:34.551Z,1.90
2022-09-15T06:15:02.623Z,6.07
2022-09-15T06:17:34.148Z,2.60
2022-09-15T06:20:00.882Z,0.98
2022-09-15T06:22:28.115Z,2.85
2022-09-15T06:24:54.819Z,1.27
2022-09-15T06:27:21.523Z,1.58
2022-09-15T06:29:48.715Z,1.88
2022-09-15T06:32:16.788Z,1.63
2022-09-15T06:34:43.599Z,1.58
2022-09-15T06:37:10.358Z,0.55
2022-09-15T06:39:37.071Z,0.93
2022-09-15T06:42:05.719Z,0.65
2022-09-15T06:44:32.589Z,1.52
2022-09-15T06:46:59.373Z,1.42
2022-09-15T06:49:27.411Z,1.15
2022-09-15T06:51:54.130Z,3.72
2022-09-15T06:54:20.946Z,1.60
2022-09-15T06:56:47.630Z,0.60
2022-09-15T06:59:15.491Z,0.75
2022-09-15T07:01:42.758Z,1.05
2022-09-15T07:04:10.126Z,0.68
2022-09-15T07:06:39.431Z,0.90
2022-09-15T07:09:06.897Z,2.35
2022-09-15T07:11:33.824Z,0.60
2022-09-15T07:14:00.642Z,0.88
2022-09-15T07:16:27.401Z,2.28
2022-09-15T07:18:55.858Z,0.68
2022-09-15T07:21:23.495Z,1.25
2022-09-15T07:23:52.070Z,1.20
2022-09-15T07:26:21.235Z,3.05
2022-09-15T07:28:50.417Z,1.67
2022-09-15T07:31:18.662Z,0.93
2022-09-15T07:33:46.089Z,2.15
2022-09-15T07:36:13.189Z,1.10
2022-09-15T07:38:41.452Z,1.65
2022-09-15T07:41:11.317Z,0.95
2022-09-15T07:43:38.835Z,2.42
2022-09-15T07:46:06.433Z,1.23
2022-09-15T07:48:33.242Z,0.68
2022-09-15T07:51:00.009Z,0.95
2022-09-15T07:53:28.092Z,0.68
2022-09-15T07:55:55.216Z,1.40
2022-09-15T07:58:23.978Z,1.13
2022-09-15T08:00:50.747Z,0.70
2022-09-15T08:03:17.586Z,0.57
2022-09-15T08:05:45.780Z,1.67
2022-09-15T08:08:12.951Z,2.00
2022-09-15T08:10:41.345Z,1.02
2022-09-15T08:13:08.560Z,1.30
2022-09-15T08:15:37.194Z,0.80
2022-09-15T08:18:04.223Z,0.80
2022-09-15T08:20:30.927Z,0.57
2022-09-15T08:22:57.625Z,1.15
2022-09-15T08:25:24.584Z,0.93
2022-09-15T08:27:52.858Z,1.88
2022-09-15T08:30:19.678Z,0.80
2022-09-15T08:32:48.197Z,0.50
2022-09-15T08:35:15.006Z,0.50
2022-09-15T08:37:41.719Z,0.60
2022-09-15T08:40:15.503Z,1.13
2022-09-15T08:42:45.979Z,0.82
2022-09-15T08:45:20.437Z,1.25
2022-09-15T08:47:51.152Z,2.35
2022-09-15T08:50:24.558Z,1.10
2022-09-15T08:52:54.057Z,1.38
2022-09-15T08:55:31.254Z,1.23
2022-09-15T08:57:57.999Z,2.90
2022-09-15T09:00:25.027Z,0.75
2022-09-15T09:03:21.199Z,0.45
2022-09-15T09:05:55.360Z,0.73
2022-09-15T09:11:09.759Z,2.67
2022-09-15T09:13:43.830Z,1.48
2022-09-15T09:19:17.540Z,2.55
2022-09-15T09:21:48.207Z,2.90
2022-09-15T09:24:17.151Z,0.82
2022-09-15T09:26:48.242Z,3.67
2022-09-15T09:29:18.047Z,2.15
2022-09-15T09:31:46.783Z,1.13
2022-09-15T09:34:22.727Z,0.80
2022-09-15T09:36:54.035Z,1.60
2022-09-15T09:39:20.774Z,1.08
2022-09-15T09:41:47.772Z,0.55
2022-09-15T09:44:15.326Z,0.88
2022-09-15T09:46:42.179Z,0.88
2022-09-15T09:49:15.524Z,0.47
2022-09-15T09:51:49.550Z,1.30
2022-09-15T09:54:16.249Z,1.38
2022-09-15T09:56:44.322Z,2.25
2022-09-15T09:59:38.828Z,0.45
2022-09-15T10:02:17.699Z,1.42
2022-09-15T10:04:46.143Z,0.55
2022-09-15T10:07:16.056Z,0.52
2022-09-15T10:09:50.269Z,0.73
2022-09-15T10:12:23.999Z,1.33
2022-09-15T10:14:52.968Z,1.23
2022-09-15T10:17:23.026Z,1.33
2022-09-15T10:19:52.274Z,1.33
2022-09-15T10:22:29.791Z,1.77
2022-09-15T10:24:57.193Z,2.00
2022-09-15T10:27:29.485Z,0.98
2022-09-15T10:29:59.587Z,2.30
2022-09-15T10:32:28.409Z,3.10
2022-09-15T10:35:07.132Z,0.85
2022-09-15T10:37:51.952Z,1.48
2022-09-15T10:40:31.442Z,1.38
2022-09-15T10:43:10.811Z,2.75
2022-09-15T10:45:39.243Z,0.43
2022-09-15T10:48:23.295Z,0.80
2022-09-15T10:51:03.063Z,2.33
2022-09-15T10:54:06.366Z,1.67
2022-09-15T10:56:36.769Z,0.60
2022-09-15T10:59:22.686Z,0.63
2022-09-15T11:02:03.984Z,7.97
2022-09-15T11:04:43.678Z,0.73
2022-09-15T11:07:22.423Z,0.70
2022-09-15T11:09:58.304Z,2.72
2022-09-15T11:12:38.297Z,7.85
2022-09-15T11:15:23.775Z,2.05
2022-09-15T11:18:04.883Z,1.35
2022-09-15T11:20:48.290Z,1.10
2022-09-15T11:23:18.685Z,2.25
2022-09-15T11:25:52.217Z,0.95
2022-09-15T11:28:22.885Z,1.20
2022-09-15T11:30:56.863Z,1.77
2022-09-15T11:35:57.127Z,1.77
2022-09-15T11:38:32.690Z,2.30
2022-09-15T11:41:11.597Z,2.00
2022-09-15T11:43:45.034Z,2.63
2022-09-15T11:46:17.389Z,2.58
2022-09-15T11:48:50.235Z,2.28
2022-09-15T11:51:21.238Z,0.70
2022-09-15T11:53:53.970Z,1.25
2022-09-15T11:56:29.082Z,1.55
2022-09-15T11:59:04.495Z,0.50
2022-09-15T12:01:39.748Z,0.45
2022-09-15T12:04:12.379Z,1.05
2022-09-15T12:06:45.928Z,0.80
2022-09-15T12:09:14.474Z,0.50
2022-09-15T12:11:45.145Z,0.68
2022-09-15T12:14:16.218Z,0.85
2022-09-15T12:16:43.837Z,0.85
2022-09-15T12:19:15.977Z,1.23
2022-09-15T12:21:53.799Z,1.02
2022-09-15T12:24:30.547Z,1.00
2022-09-15T12:27:00.863Z,1.10
2022-09-15T12:29:39.454Z,0.77
2022-09-15T12:32:23.396Z,1.10
2022-09-15T12:35:30.003Z,0.70
2022-09-15T12:37:58.915Z,5.32
2022-09-15T12:40:35.641Z,1.45
2022-09-15T12:43:17.523Z,1.63
2022-09-15T12:45:54.294Z,1.50
2022-09-15T12:48:25.218Z,2.25
2022-09-15T12:50:58.191Z,5.53
2022-09-15T12:53:27.895Z,1.10
2022-09-15T12:55:58.517Z,2.13
2022-09-15T12:58:32.938Z,1.95
2022-09-15T13:01:31.822Z,4.65
2022-09-15T13:04:41.512Z,2.30
2022-09-15T13:07:36.116Z,3.80
2022-09-15T13:10:29.405Z,2.95
2022-09-15T13:13:07.428Z,3.28
2022-09-15T13:15:43.388Z,1.40
2022-09-15T13:18:12.175Z,1.63
2022-09-15T13:20:43.164Z,1.50
2022-09-15T13:23:14.333Z,2.17
2022-09-15T13:25:43.161Z,2.38
2022-09-15T13:28:12.103Z,2.65
2022-09-15T13:30:59.941Z,1.35
2022-09-15T13:39:53.312Z,1.08
2022-09-15T13:42:30.182Z,1.20
2022-09-15T13:45:24.558Z,1.50
2022-09-15T13:48:16.242Z,1.20
2022-09-15T13:50:50.466Z,1.15
2022-09-15T13:53:35.483Z,1.33
2022-09-15T13:56:06.093Z,1.13
2022-09-15T14:01:22.286Z,4.88
2022-09-15T14:03:53.159Z,0.93
2022-09-15T14:06:22.819Z,0.30
2022-09-15T14:08:52.666Z,0.55
2022-09-15T14:11:25.373Z,1.27
2022-09-15T14:13:53.531Z,1.20
2022-09-15T14:16:29.135Z,0.47
2022-09-15T14:18:58.218Z,2.15
2022-09-15T14:21:26.831Z,0.55
2022-09-15T14:23:54.976Z,1.38
2022-09-15T14:26:24.654Z,0.50
2022-09-15T14:28:53.284Z,0.38
2022-09-15T14:31:28.564Z,0.80
2022-09-15T14:33:57.050Z,0.15
2022-09-15T14:36:27.026Z,2.38
2022-09-15T14:39:18.128Z,1.55
2022-09-15T14:41:46.932Z,0.10
2022-09-15T14:47:11.767Z,0.20
2022-09-15T14:49:42.723Z,0.20
2022-09-15T14:52:23.487Z,0.38
2022-09-15T14:54:52.708Z,2.90
2022-09-15T14:57:22.057Z,3.30
2022-09-15T14:59:54.832Z,0.60
2022-09-15T15:02:29.196Z,1.45
2022-09-15T15:05:05.288Z,0.20
2022-09-15T15:07:35.427Z,0.20
2022-09-15T15:10:05.923Z,0.43
2022-09-15T15:12:35.619Z,0.32
2022-09-15T15:15:02.832Z,0.43
2022-09-15T15:17:35.215Z,0.90
2022-09-15T15:20:15.286Z,1.15
2022-09-15T15:22:43.547Z,0.82
2022-09-15T15:25:24.632Z,1.30
2022-09-15T15:27:52.737Z,1.10
2022-09-15T15:30:43.726Z,1.52
2022-09-15T15:33:22.948Z,1.10
2022-09-15T15:36:05.781Z,2.40
2022-09-15T15:38:36.872Z,1.65
2022-09-15T15:41:06.192Z,1.15
2022-09-15T15:43:32.923Z,1.02
2022-09-15T15:46:01.599Z,1.90
2022-09-15T15:48:33.967Z,0.98
2022-09-15T15:51:06.050Z,1.10
2022-09-15T15:53:32.836Z,2.00
2022-09-15T15:55:59.562Z,1.55
2022-09-15T15:58:26.398Z,1.17
2022-09-15T16:00:54.864Z,1.38
2022-09-15T16:03:22.214Z,2.10
2022-09-15T16:05:51.225Z,2.50
2022-09-15T16:08:24.675Z,1.88
2022-09-15T16:10:53.232Z,1.25
2022-09-15T16:13:21.457Z,2.00
2022-09-15T16:15:48.842Z,3.38
2022-09-15T16:18:15.724Z,1.45
2022-09-15T16:20:43.244Z,1.70
2022-09-15T16:23:13.403Z,2.15
2022-09-15T16:25:48.007Z,2.28
2022-09-15T16:28:15.249Z,3.85
2022-09-15T16:30:42.102Z,3.85
2022-09-15T16:33:12.898Z,3.17
2022-09-15T16:35:45.082Z,2.70
2022-09-15T16:38:11.881Z,2.47
2022-09-15T16:40:38.619Z,1.40
2022-09-15T16:43:12.226Z,3.08
2022-09-15T16:45:40.806Z,4.05
2022-09-15T16:48:08.550Z,3.60
2022-09-15T16:50:37.789Z,2.28
2022-09-15T16:53:09.182Z,2.17
2022-09-15T16:55:38.578Z,1.48
2022-09-15T16:58:07.065Z,1.50
2022-09-15T17:00:35.791Z,4.07
2022-09-15T17:03:02.652Z,1.85
2022-09-15T17:05:32.423Z,3.63
2022-09-15T17:07:59.279Z,3.78
2022-09-15T17:10:26.124Z,1.98
2022-09-15T17:12:53.053Z,4.70
2022-09-15T17:15:24.628Z,1.92
2022-09-15T17:17:51.715Z,3.33
2022-09-15T17:20:18.919Z,3.90
2022-09-15T17:22:46.220Z,2.50
2022-09-15T17:25:26.684Z,3.70
2022-09-15T17:27:53.974Z,3.50
2022-09-15T17:30:24.433Z,2.58
2022-09-15T17:32:51.529Z,4.60
2022-09-15T17:35:22.709Z,3.63
2022-09-15T17:37:49.930Z,2.67
2022-09-15T17:40:17.998Z,4.50
2022-09-15T17:42:45.284Z,3.47
2022-09-15T17:45:20.225Z,3.90
2022-09-15T17:47:48.545Z,4.20
2022-09-15T17:50:16.465Z,2.42
2022-09-15T17:52:43.165Z,2.30
2022-09-15T17:55:16.692Z,4.28
2022-09-15T17:57:43.601Z,3.15
2022-09-15T18:00:11.079Z,3.45
2022-09-15T18:02:38.665Z,2.53
2022-09-15T18:05:10.842Z,5.68
2022-09-15T18:07:37.532Z,4.95
2022-09-15T18:10:04.993Z,2.08
2022-09-15T18:12:31.670Z,2.00
2022-09-15T18:14:58.338Z,3.00
2022-09-15T18:17:25.102Z,3.00
2022-09-15T18:19:51.850Z,2.67
2022-09-15T18:22:22.800Z,4.47
2022-09-15T18:24:49.577Z,2.15
2022-09-15T18:27:20.009Z,2.38
2022-09-15T18:29:46.813Z,2.40
2022-09-15T18:32:13.695Z,3.72
2022-09-15T18:34:40.457Z,3.00
2022-09-15T18:37:07.175Z,3.53
2022-09-15T18:39:35.403Z,2.67
2022-09-15T18:42:02.119Z,3.50
2022-09-15T18:44:28.907Z,5.32
2022-09-15T18:46:55.611Z,3.67
2022-09-15T18:49:22.507Z,4.10
2022-09-15T18:51:52.373Z,2.50
2022-09-15T18:54:19.147Z,2.78
2022-09-15T18:56:47.220Z,2.00
2022-09-15T18:59:17.542Z,3.63
2022-09-15T19:01:44.608Z,3.75
2022-09-15T19:04:11.347Z,2.63
2022-09-15T19:06:38.048Z,2.03
2022-09-15T19:09:04.756Z,6.38
2022-09-15T19:11:31.421Z,2.60
2022-09-15T19:13:59.950Z,3.60
2022-09-15T19:16:46.576Z,4.10
2022-09-15T19:19:13.685Z,3.33
2022-09-15T19:21:40.428Z,2.80
2022-09-15T19:24:07.191Z,4.55
2022-09-15T19:26:33.899Z,3.35
2022-09-15T19:29:01.982Z,2.92
2022-09-15T19:31:28.830Z,2.90
2022-09-15T19:33:55.554Z,6.20
2022-09-15T19:36:29.535Z,3.30
2022-09-15T19:38:56.489Z,3.33
2022-09-15T19:41:23.548Z,4.88
2022-09-15T19:43:50.286Z,3.53
2022-09-15T19:46:21.321Z,2.67
2022-09-15T19:48:50.182Z,3.33
2022-09-15T19:51:18.075Z,9.98
2022-09-15T19:53:45.128Z,4.28
2022-09-15T19:56:14.286Z,4.47
2022-09-15T19:58:41.072Z,3.80
2022-09-15T20:01:09.062Z,3.85
2022-09-15T20:03:37.681Z,4.10
2022-09-15T20:06:06.355Z,2.80
2022-09-15T20:08:33.055Z,3.45
2022-09-15T20:10:59.920Z,2.63
2022-09-15T20:13:26.611Z,3.72
2022-09-15T20:15:58.060Z,3.92
2022-09-15T20:18:25.467Z,7.32
2022-09-15T20:20:53.877Z,3.78
2022-09-15T20:23:21.037Z,3.78
2022-09-15T20:25:58.207Z,4.25
2022-09-15T20:28:25.991Z,4.03
2022-09-15T20:31:03.940Z,3.28
2022-09-15T20:33:31.244Z,4.32
2022-09-15T20:36:02.772Z,5.40
2022-09-15T20:38:30.779Z,5.32
2022-09-15T20:40:57.669Z,6.18
2022-09-15T20:43:24.518Z,3.00
2022-09-15T20:45:55.667Z,4.57
2022-09-15T20:48:22.393Z,3.38
2022-09-15T20:50:49.094Z,4.28
2022-09-15T20:53:17.109Z,3.78
2022-09-15T20:55:49.114Z,4.72
2022-09-15T20:58:15.801Z,5.65
2022-09-15T21:00:42.500Z,5.72
2022-09-15T21:03:09.191Z,5.90
2022-09-15T21:05:35.867Z,5.68
2022-09-15T21:08:02.743Z,6.65
2022-09-15T21:10:30.761Z,4.60
2022-09-15T21:12:57.441Z,3.63
2022-09-15T21:15:24.233Z,3.95
2022-09-15T21:17:50.893Z,6.18
2022-09-15T21:20:17.704Z,5.53
2022-09-15T21:22:44.447Z,3.67
2022-09-15T21:25:11.143Z,4.22
2022-09-15T21:27:39.176Z,6.32
2022-09-15T21:30:06.777Z,7.15
2022-09-15T21:32:33.457Z,8.02
2022-09-15T21:35:00.159Z,7.85
2022-09-15T21:37:26.845Z,4.80
2022-09-15T21:39:53.621Z,5.63
2022-09-15T21:42:20.294Z,6.60
2022-09-15T21:44:48.322Z,5.88
2022-09-15T21:47:14.999Z,6.03
2022-09-15T21:49:41.729Z,5.53
2022-09-15T21:52:08.709Z,6.85
2022-09-15T21:54:35.391Z,5.70
2022-09-15T21:57:02.167Z,6.78
2022-09-15T21:59:28.842Z,7.03
2022-09-15T22:01:56.953Z,7.07
2022-09-15T22:04:23.745Z,6.68
2022-09-15T22:06:50.441Z,7.80
2022-09-15T22:09:19.009Z,6.30
2022-09-15T22:11:45.731Z,8.85
2022-09-15T22:14:12.549Z,7.07
2022-09-15T22:16:41.012Z,6.82
2022-09-15T22:19:11.364Z,6.55
2022-09-15T22:21:38.285Z,6.93
2022-09-15T22:24:06.157Z,7.10
2022-09-15T22:26:34.770Z,7.07
2022-09-15T22:29:01.980Z,7.20
2022-09-15T22:31:29.726Z,9.13
2022-09-15T22:33:57.141Z,7.03
2022-09-15T22:36:29.736Z,9.35
2022-09-15T22:38:57.816Z,7.20
2022-09-15T22:41:24.485Z,5.78
2022-09-15T22:43:51.499Z,6.40
2022-09-15T22:46:18.716Z,5.55
2022-09-15T22:48:45.845Z,5.88
2022-09-15T22:51:13.283Z,5.25
2022-09-15T22:53:41.565Z,6.03
2022-09-15T22:56:11.301Z,7.05
2022-09-15T22:58:40.523Z,7.38
2022-09-15T23:01:09.873Z,7.45
2022-09-15T23:03:36.818Z,6.47
2022-09-15T23:06:04.798Z,9.13
2022-09-15T23:08:32.158Z,7.57
2022-09-15T23:11:05.726Z,6.03
2022-09-15T23:13:32.586Z,5.68
2022-09-15T23:15:59.740Z,8.32
2022-09-15T23:18:26.759Z,7.15
2022-09-15T23:20:57.965Z,5.70
2022-09-15T23:23:25.019Z,6.03
2022-09-15T23:25:51.750Z,5.90
2022-09-15T23:28:19.818Z,8.18
2022-09-15T23:30:51.122Z,10.50
2022-09-15T23:33:18.338Z,6.75
2022-09-15T23:35:45.482Z,6.95
2022-09-15T23:38:12.188Z,5.57
2022-09-15T23:40:41.064Z,6.32
2022-09-15T23:43:07.775Z,11.65
2022-09-15T23:45:35.932Z,5.75
2022-09-15T23:48:03.188Z,7.32
2022-09-15T23:50:29.915Z,6.18
2022-09-15T23:52:56.785Z,8.32
2022-09-15T23:55:23.518Z,8.20
2022-09-15T23:57:50.260Z,6.80
